createdAt,value
2022-08-21T00:02:30.689Z,99.90
2022-08-21T00:05:03.517Z,99.90
2022-08-21T00:07:34.720Z,99.90
2022-08-21T00:10:07.496Z,99.90
2022-08-21T00:12:43.383Z,99.90
2022-08-21T00:15:30.621Z,99.90
2022-08-21T00:18:04.882Z,99.90
2022-08-21T00:20:34.056Z,99.90
2022-08-21T00:23:05.563Z,99.90
2022-08-21T00:25:35.299Z,99.90
2022-08-21T00:28:06.281Z,99.90
2022-08-21T00:30:38.269Z,99.90
2022-08-21T00:33:13.805Z,99.90
2022-08-21T00:35:46.954Z,99.90
2022-08-21T00:38:19.682Z,99.90
2022-08-21T00:40:51.569Z,99.90
2022-08-21T00:43:25.373Z,99.90
2022-08-21T00:46:11.993Z,99.90
2022-08-21T00:48:42.516Z,99.90
2022-08-21T00:51:30.663Z,99.90
2022-08-21T00:54:05.138Z,99.90
2022-08-21T00:56:34.278Z,99.90
2022-08-21T00:59:21.036Z,99.90
2022-08-21T01:01:54.405Z,99.90
2022-08-21T01:04:33.628Z,99.90
2022-08-21T01:07:14.535Z,99.90
2022-08-21T01:09:56.740Z,99.90
2022-08-21T01:12:32.262Z,99.90
2022-08-21T01:15:01.556Z,99.90
2022-08-21T01:17:35.965Z,99.90
2022-08-21T01:20:22.113Z,99.90
2022-08-21T01:23:05.162Z,99.90
2022-08-21T01:26:01.527Z,99.90
2022-08-21T01:28:35.525Z,99.90
2022-08-21T01:31:07.730Z,99.90
2022-08-21T01:33:43.956Z,99.90
2022-08-21T01:36:19.375Z,99.90
2022-08-21T01:39:05.943Z,99.90
2022-08-21T01:41:34.664Z,99.90
2022-08-21T01:44:03.257Z,99.90
2022-08-21T01:46:36.307Z,99.90
2022-08-21T01:49:08.003Z,99.90
2022-08-21T01:51:51.488Z,99.90
2022-08-21T01:54:24.135Z,99.90
2022-08-21T01:56:53.884Z,99.90
2022-08-21T01:59:31.275Z,99.90
2022-08-21T02:02:00.835Z,99.90
2022-08-21T02:04:32.540Z,99.90
2022-08-21T02:07:04.204Z,99.90
2022-08-21T02:10:00.334Z,99.90
2022-08-21T02:12:30.277Z,99.90
2022-08-21T02:15:01.995Z,99.90
2022-08-21T02:17:39.998Z,99.90
2022-08-21T02:20:09.492Z,99.90
2022-08-21T02:22:39.315Z,99.90
2022-08-21T02:25:25.376Z,99.90
2022-08-21T02:27:57.474Z,99.90
2022-08-21T02:30:40.352Z,99.90
2022-08-21T02:33:13.117Z,99.90
2022-08-21T02:35:46.602Z,99.90
2022-08-21T02:38:20.613Z,99.90
2022-08-21T02:40:54.989Z,99.90
2022-08-21T02:43:38.404Z,99.90
2022-08-21T02:46:12.374Z,99.90
2022-08-21T02:48:46.040Z,99.90
2022-08-21T02:51:21.087Z,99.90
2022-08-21T02:53:52.524Z,99.90
2022-08-21T02:56:25.746Z,99.90
2022-08-21T02:59:02.007Z,99.90
2022-08-21T03:01:33.595Z,99.90
2022-08-21T03:04:02.108Z,99.90
2022-08-21T03:06:37.096Z,99.90
2022-08-21T03:09:14.891Z,99.90
2022-08-21T03:11:52.162Z,99.90
2022-08-21T03:14:20.760Z,99.90
2022-08-21T03:16:53.949Z,99.90
2022-08-21T03:19:24.155Z,99.90
2022-08-21T03:21:54.634Z,99.90
2022-08-21T03:24:27.738Z,99.90
2022-08-21T03:27:00.533Z,99.90
2022-08-21T03:29:35.126Z,99.90
2022-08-21T03:32:03.691Z,99.90
2022-08-21T03:34:35.071Z,99.90
2022-08-21T03:37:05.981Z,99.90
2022-08-21T03:39:36.925Z,99.90
2022-08-21T03:42:07.533Z,99.90
2022-08-21T03:44:47.905Z,99.90
2022-08-21T03:47:17.558Z,99.90
2022-08-21T03:49:55.102Z,99.90
2022-08-21T03:52:37.743Z,99.90
2022-08-21T03:55:08.131Z,99.90
2022-08-21T03:57:40.320Z,99.90
2022-08-21T04:00:16.976Z,99.90
2022-08-21T04:02:45.791Z,99.90
2022-08-21T04:05:28.434Z,99.90
2022-08-21T04:08:04.763Z,99.90
2022-08-21T04:10:52.021Z,99.90
2022-08-21T04:13:29.349Z,99.90
2022-08-21T04:16:05.408Z,99.90
2022-08-21T04:18:39.563Z,99.90
2022-08-21T04:21:13.424Z,99.90
2022-08-21T04:23:41.999Z,99.90
2022-08-21T04:26:10.914Z,99.90
2022-08-21T04:28:44.840Z,99.90
2022-08-21T04:31:14.205Z,99.90
2022-08-21T04:33:46.161Z,99.90
2022-08-21T04:36:16.400Z,99.90
2022-08-21T04:38:54.394Z,99.90
2022-08-21T04:41:35.096Z,99.90
2022-08-21T04:44:12.492Z,99.90
2022-08-21T04:46:42.975Z,99.90
2022-08-21T04:49:19.280Z,99.90
2022-08-21T04:52:02.944Z,99.90
2022-08-21T04:54:37.132Z,99.90
2022-08-21T04:57:25.289Z,99.90
2022-08-21T05:00:14.238Z,99.90
2022-08-21T05:02:47.339Z,99.90
2022-08-21T05:05:16.538Z,99.90
2022-08-21T05:07:50.113Z,99.90
2022-08-21T05:10:35.485Z,99.90
2022-08-21T05:13:09.613Z,99.90
2022-08-21T05:15:40.047Z,99.90
2022-08-21T05:18:14.802Z,99.90
2022-08-21T05:20:45.071Z,99.90
2022-08-21T05:23:14.660Z,99.90
2022-08-21T05:25:46.146Z,99.90
2022-08-21T05:28:14.668Z,99.90
2022-08-21T05:30:44.684Z,99.90
2022-08-21T05:33:13.501Z,99.90
2022-08-21T05:35:42.377Z,99.90
2022-08-21T05:38:18.410Z,99.90
2022-08-21T05:40:47.344Z,99.90
2022-08-21T05:43:15.890Z,99.90
2022-08-21T05:45:48.936Z,99.90
2022-08-21T05:48:19.504Z,99.90
2022-08-21T05:50:52.874Z,99.90
2022-08-21T05:53:25.231Z,99.90
2022-08-21T05:55:59.790Z,99.90
2022-08-21T05:58:37.979Z,99.90
2022-08-21T06:01:17.960Z,99.90
2022-08-21T06:04:02.299Z,99.90
2022-08-21T06:06:40.668Z,99.90
2022-08-21T06:09:10.957Z,99.90
2022-08-21T06:11:56.363Z,99.90
2022-08-21T06:14:49.727Z,99.90
2022-08-21T06:17:36.618Z,99.90
2022-08-21T06:20:21.321Z,99.90
2022-08-21T06:23:05.106Z,99.90
2022-08-21T06:25:45.392Z,99.90
2022-08-21T06:28:26.171Z,99.90
2022-08-21T06:31:13.149Z,99.90
2022-08-21T06:34:12.895Z,99.90
2022-08-21T06:36:54.229Z,99.90
2022-08-21T06:39:32.425Z,99.90
2022-08-21T06:42:20.064Z,99.90
2022-08-21T06:44:49.053Z,99.90
2022-08-21T06:47:31.961Z,99.90
2022-08-21T06:50:18.182Z,99.90
2022-08-21T06:52:58.263Z,99.90
2022-08-21T06:55:53.473Z,99.90
2022-08-21T06:58:31.544Z,99.90
2022-08-21T07:01:11.260Z,99.90
2022-08-21T07:04:10.879Z,99.90
2022-08-21T07:06:39.382Z,99.90
2022-08-21T07:10:07.811Z,99.90
2022-08-21T07:12:24.414Z,99.90
2022-08-21T07:15:18.983Z,99.90
2022-08-21T07:18:03.366Z,99.90
2022-08-21T07:20:44.553Z,99.90
2022-08-21T07:23:42.714Z,99.90
2022-08-21T07:27:08.223Z,99.90
2022-08-21T07:29:53.720Z,99.90
2022-08-21T07:39:21.676Z,99.90
2022-08-21T07:42:08.709Z,99.90
2022-08-21T07:44:49.580Z,99.90
2022-08-21T07:47:57.511Z,99.90
2022-08-21T07:50:43.895Z,99.90
2022-08-21T07:53:45.439Z,99.90
2022-08-21T07:56:54.893Z,99.90
2022-08-21T08:00:08.057Z,99.90
2022-08-21T08:03:09.595Z,99.90
2022-08-21T08:06:23.404Z,99.90
2022-08-21T08:09:40.887Z,99.90
2022-08-21T08:13:47.036Z,99.90
2022-08-21T08:16:26.655Z,99.90
2022-08-21T08:20:03.751Z,97.80
2022-08-21T08:26:04.128Z,93.70
2022-08-21T08:26:11.889Z,95.30
2022-08-21T08:28:56.751Z,91.90
2022-08-21T08:32:14.381Z,88.70
2022-08-21T08:34:51.896Z,83.30
2022-08-21T08:37:44.403Z,78.20
2022-08-21T08:40:37.085Z,78.30
2022-08-21T08:47:04.625Z,75.70
2022-08-21T08:49:50.525Z,73.30
2022-08-21T08:52:56.709Z,71.30
2022-08-21T08:58:48.460Z,68.30
2022-08-21T09:01:48.901Z,66.10
2022-08-21T09:04:39.888Z,66.00
2022-08-21T09:07:31.361Z,65.90
2022-08-21T09:10:12.502Z,65.30
2022-08-21T09:12:51.866Z,62.80
2022-08-21T09:18:56.589Z,60.80
2022-08-21T09:21:43.914Z,59.20
2022-08-21T09:24:27.148Z,61.40
2022-08-21T09:27:10.110Z,57.90
2022-08-21T09:29:49.260Z,58.40
2022-08-21T09:32:36.996Z,59.50
2022-08-21T09:35:09.218Z,63.00
2022-08-21T09:38:25.023Z,61.90
2022-08-21T09:41:01.573Z,59.80
2022-08-21T09:46:51.997Z,58.50
2022-08-21T09:49:31.898Z,59.30
2022-08-21T09:52:01.050Z,60.80
2022-08-21T09:54:35.020Z,60.90
2022-08-21T09:57:29.290Z,59.60
2022-08-21T10:00:11.999Z,60.50
2022-08-21T10:02:48.546Z,59.80
2022-08-21T10:05:22.562Z,61.90
2022-08-21T10:08:04.810Z,61.70
2022-08-21T10:10:35.403Z,58.30
2022-08-21T10:13:09.117Z,61.20
2022-08-21T10:15:42.803Z,60.50
2022-08-21T10:18:23.178Z,58.90
2022-08-21T10:20:55.379Z,59.50
2022-08-21T10:26:29.015Z,58.80
2022-08-21T10:29:04.893Z,58.20
2022-08-21T10:31:46.274Z,57.80
2022-08-21T10:34:28.407Z,57.80
2022-08-21T10:37:19.835Z,56.90
2022-08-21T10:40:10.293Z,56.80
2022-08-21T10:42:45.958Z,56.90
2022-08-21T10:45:21.456Z,56.60
2022-08-21T10:48:02.352Z,55.60
2022-08-21T10:51:09.653Z,55.90
2022-08-21T10:53:43.781Z,56.30
2022-08-21T10:56:36.658Z,56.50
2022-08-21T10:59:43.215Z,53.00
2022-08-21T11:02:20.448Z,55.80
2022-08-21T11:04:57.136Z,55.80
2022-08-21T11:07:34.695Z,56.40
2022-08-21T11:10:05.687Z,56.20
2022-08-21T11:12:44.077Z,56.20
2022-08-21T11:15:28.965Z,56.60
2022-08-21T11:18:03.808Z,56.70
2022-08-21T11:20:35.102Z,57.30
2022-08-21T11:23:08.768Z,57.30
2022-08-21T11:25:39.163Z,57.40
2022-08-21T11:28:14.386Z,56.60
2022-08-21T11:30:51.129Z,55.50
2022-08-21T11:33:29.118Z,56.10
2022-08-21T11:36:07.037Z,56.80
2022-08-21T11:38:41.911Z,56.40
2022-08-21T11:41:28.056Z,56.80
2022-08-21T11:44:00.241Z,57.60
2022-08-21T11:46:36.067Z,56.60
2022-08-21T11:49:22.402Z,56.60
2022-08-21T11:51:55.043Z,55.80
2022-08-21T11:54:28.340Z,55.60
2022-08-21T11:56:58.685Z,55.50
2022-08-21T11:59:30.968Z,55.00
2022-08-21T12:01:59.522Z,54.30
2022-08-21T12:04:29.703Z,53.80
2022-08-21T12:06:58.177Z,54.80
2022-08-21T12:09:37.869Z,54.10
2022-08-21T12:12:07.481Z,55.10
2022-08-21T12:14:39.898Z,53.80
2022-08-21T12:17:12.543Z,54.00
2022-08-21T12:19:41.711Z,53.40
2022-08-21T12:22:12.031Z,54.30
2022-08-21T12:24:44.180Z,55.80
2022-08-21T12:27:21.295Z,53.90
2022-08-21T12:29:51.037Z,54.20
2022-08-21T12:32:25.466Z,54.70
2022-08-21T12:34:58.004Z,54.50
2022-08-21T12:37:30.456Z,55.80
2022-08-21T12:40:04.081Z,55.70
2022-08-21T12:42:36.353Z,55.30
2022-08-21T12:45:10.207Z,55.70
2022-08-21T12:47:45.705Z,55.20
2022-08-21T12:50:15.998Z,54.90
2022-08-21T12:52:47.044Z,55.30
2022-08-21T12:55:28.233Z,55.50
2022-08-21T12:57:59.459Z,54.60
2022-08-21T13:00:29.046Z,55.70
2022-08-21T13:02:57.928Z,55.80
2022-08-21T13:05:30.498Z,54.20
2022-08-21T13:07:59.241Z,53.10
2022-08-21T13:10:30.470Z,53.80
2022-08-21T13:13:00.791Z,54.20
2022-08-21T13:15:33.637Z,53.60
2022-08-21T13:18:03.663Z,51.90
2022-08-21T13:20:34.398Z,52.30
2022-08-21T13:23:03.780Z,52.40
2022-08-21T13:25:42.510Z,54.10
2022-08-21T13:28:15.971Z,53.90
2022-08-21T13:30:45.504Z,54.50
2022-08-21T13:33:18.305Z,53.60
2022-08-21T13:35:51.317Z,52.20
2022-08-21T13:38:22.068Z,52.80
2022-08-21T13:40:58.374Z,52.40
2022-08-21T13:43:30.072Z,52.40
2022-08-21T13:45:58.598Z,52.80
2022-08-21T13:48:29.009Z,54.10
2022-08-21T13:50:57.547Z,53.60
2022-08-21T13:53:31.344Z,53.50
2022-08-21T13:56:02.061Z,53.70
2022-08-21T13:58:33.802Z,53.80
2022-08-21T14:01:07.217Z,54.40
2022-08-21T14:03:37.902Z,55.20
2022-08-21T14:06:13.418Z,56.00
2022-08-21T14:08:42.419Z,55.60
2022-08-21T14:11:14.617Z,55.10
2022-08-21T14:13:44.648Z,54.70
2022-08-21T14:16:14.895Z,54.80
2022-08-21T14:18:49.401Z,55.00
2022-08-21T14:21:30.158Z,55.50
2022-08-21T14:24:05.517Z,54.70
2022-08-21T14:26:39.101Z,56.20
2022-08-21T14:29:10.529Z,55.70
2022-08-21T14:31:43.069Z,57.10
2022-08-21T14:34:17.312Z,57.60
2022-08-21T14:36:48.891Z,57.20
2022-08-21T14:39:17.596Z,57.20
2022-08-21T14:41:49.783Z,59.40
2022-08-21T14:44:19.329Z,59.20
2022-08-21T14:46:55.497Z,59.90
2022-08-21T14:49:27.606Z,61.70
2022-08-21T14:51:58.651Z,62.20
2022-08-21T14:54:31.760Z,62.70
2022-08-21T14:57:12.445Z,62.10
2022-08-21T14:59:41.308Z,63.00
2022-08-21T15:02:09.790Z,62.90
2022-08-21T15:04:38.166Z,63.70
2022-08-21T15:07:06.547Z,65.40
2022-08-21T15:09:34.852Z,65.10
2022-08-21T15:12:05.101Z,66.60
2022-08-21T15:14:41.799Z,66.90
2022-08-21T15:17:14.461Z,65.80
2022-08-21T15:19:43.922Z,67.20
2022-08-21T15:22:18.727Z,66.70
2022-08-21T15:24:51.647Z,68.00
2022-08-21T15:27:24.100Z,67.70
2022-08-21T15:29:54.531Z,67.90
2022-08-21T15:32:24.789Z,67.10
2022-08-21T15:34:58.812Z,67.60
2022-08-21T15:37:28.101Z,67.30
2022-08-21T15:39:56.566Z,67.00
2022-08-21T15:42:27.795Z,67.90
2022-08-21T15:44:56.409Z,67.30
2022-08-21T15:47:28.116Z,68.00
2022-08-21T15:49:59.576Z,67.60
2022-08-21T15:52:28.536Z,66.30
2022-08-21T15:54:57.034Z,67.60
2022-08-21T15:57:27.815Z,66.80
2022-08-21T15:59:58.639Z,67.80
2022-08-21T16:02:29.911Z,68.10
2022-08-21T16:04:58.308Z,67.50
2022-08-21T16:07:26.850Z,68.90
2022-08-21T16:09:57.614Z,69.20
2022-08-21T16:12:40.113Z,67.90
2022-08-21T16:15:20.223Z,68.10
2022-08-21T16:17:50.682Z,69.00
2022-08-21T16:20:21.164Z,69.40
2022-08-21T16:22:55.023Z,70.30
2022-08-21T16:25:30.636Z,70.10
2022-08-21T16:28:04.600Z,71.00
2022-08-21T16:30:33.290Z,72.30
2022-08-21T16:33:05.276Z,71.90
2022-08-21T16:35:33.919Z,72.30
2022-08-21T16:38:02.575Z,72.60
2022-08-21T16:40:31.034Z,72.90
2022-08-21T16:43:01.831Z,75.30
2022-08-21T16:45:34.501Z,74.30
2022-08-21T16:48:04.686Z,74.40
2022-08-21T16:50:33.224Z,75.60
2022-08-21T16:53:01.472Z,75.20
2022-08-21T16:55:29.933Z,75.50
2022-08-21T16:58:01.404Z,75.90
2022-08-21T17:00:48.436Z,76.40
2022-08-21T17:03:34.774Z,75.90
2022-08-21T17:06:07.041Z,76.20
2022-08-21T17:08:38.179Z,76.60
2022-08-21T17:11:24.474Z,77.00
2022-08-21T17:14:05.677Z,76.80
2022-08-21T17:16:37.455Z,76.70
2022-08-21T17:19:11.312Z,77.40
2022-08-21T17:21:43.452Z,78.20
2022-08-21T17:24:13.155Z,78.30
2022-08-21T17:26:41.969Z,78.00
2022-08-21T17:29:15.510Z,77.10
2022-08-21T17:31:48.850Z,77.40
2022-08-21T17:34:19.106Z,77.20
2022-08-21T17:36:50.655Z,78.20
2022-08-21T17:39:39.920Z,78.40
2022-08-21T17:42:11.019Z,78.70
2022-08-21T17:44:44.290Z,79.70
2022-08-21T17:47:20.422Z,80.20
2022-08-21T17:49:48.815Z,80.80
2022-08-21T17:52:24.189Z,80.70
2022-08-21T17:54:52.873Z,81.80
2022-08-21T17:57:52.700Z,82.30
2022-08-21T18:00:21.768Z,82.50
2022-08-21T18:03:05.830Z,83.10
2022-08-21T18:05:36.723Z,83.70
2022-08-21T18:08:10.543Z,84.30
2022-08-21T18:10:44.823Z,85.40
2022-08-21T18:13:21.708Z,86.50
2022-08-21T18:15:51.682Z,87.70
2022-08-21T18:18:30.817Z,89.40
2022-08-21T18:21:02.689Z,90.70
2022-08-21T18:23:43.841Z,92.80
2022-08-21T18:26:15.284Z,94.20
2022-08-21T18:28:47.461Z,93.70
2022-08-21T18:31:15.953Z,94.20
2022-08-21T18:33:58.395Z,95.00
2022-08-21T18:36:31.121Z,95.40
2022-08-21T18:39:34.805Z,96.40
2022-08-21T18:41:59.392Z,97.70
2022-08-21T18:44:33.661Z,99.00
2022-08-21T18:47:22.108Z,99.90
2022-08-21T18:49:59.632Z,99.90
2022-08-21T18:52:33.831Z,99.90
2022-08-21T18:55:15.638Z,99.90
2022-08-21T18:57:52.561Z,99.90
2022-08-21T19:00:30.890Z,99.90
2022-08-21T19:03:13.107Z,99.90
2022-08-21T19:05:50.953Z,99.90
2022-08-21T19:08:30.872Z,99.90
2022-08-21T19:11:14.980Z,99.90
2022-08-21T19:14:18.729Z,99.90
2022-08-21T19:17:28.594Z,99.90
2022-08-21T19:20:25.740Z,99.90
2022-08-21T19:23:02.351Z,99.90
2022-08-21T19:25:41.849Z,99.90
2022-08-21T19:28:47.546Z,99.90
2022-08-21T19:31:50.559Z,99.90
2022-08-21T19:34:29.432Z,99.90
2022-08-21T19:37:18.252Z,99.90
2022-08-21T19:40:06.719Z,99.90
2022-08-21T19:43:01.173Z,99.90
2022-08-21T19:45:44.252Z,99.90
2022-08-21T19:48:18.964Z,99.90
2022-08-21T19:50:50.006Z,99.90
2022-08-21T19:53:35.655Z,99.90
2022-08-21T19:56:27.120Z,99.90
2022-08-21T19:59:03.915Z,99.90
2022-08-21T20:01:51.394Z,99.90
2022-08-21T20:04:24.482Z,99.90
2022-08-21T20:07:00.011Z,99.90
2022-08-21T20:09:42.563Z,99.90
2022-08-21T20:12:27.394Z,99.90
2022-08-21T20:15:08.706Z,99.90
2022-08-21T20:17:48.526Z,99.90
2022-08-21T20:20:24.678Z,99.90
2022-08-21T20:23:10.734Z,99.90
2022-08-21T20:25:47.611Z,99.90
2022-08-21T20:28:32.454Z,99.90
2022-08-21T20:34:07.247Z,99.90
2022-08-21T20:36:43.276Z,99.90
2022-08-21T20:39:20.315Z,99.90
2022-08-21T20:41:55.107Z,99.90
2022-08-21T20:44:38.419Z,99.90
2022-08-21T20:47:29.267Z,99.90
2022-08-21T20:50:15.343Z,99.90
2022-08-21T20:52:57.712Z,99.90
2022-08-21T20:55:38.596Z,99.90
2022-08-21T20:58:20.153Z,99.90
2022-08-21T21:00:58.172Z,99.90
2022-08-21T21:06:59.031Z,99.90
2022-08-21T21:09:43.123Z,99.90
2022-08-21T21:12:27.917Z,99.90
2022-08-21T21:15:14.286Z,99.90
2022-08-21T21:18:03.724Z,99.90
2022-08-21T21:20:45.830Z,99.90
2022-08-21T21:23:35.599Z,99.90
2022-08-21T21:26:08.311Z,99.90
2022-08-21T21:29:15.327Z,99.90
2022-08-21T21:31:52.156Z,99.90
2022-08-21T21:34:30.619Z,99.90
2022-08-21T21:37:10.947Z,99.90
2022-08-21T21:42:50.501Z,99.90
2022-08-21T21:45:37.848Z,99.90
2022-08-21T21:48:21.260Z,99.90
2022-08-21T21:51:03.187Z,99.90
2022-08-21T21:57:21.046Z,99.90
2022-08-21T22:00:02.845Z,99.90
2022-08-21T22:02:58.767Z,99.90
2022-08-21T22:05:50.600Z,99.90
2022-08-21T22:08:51.274Z,99.90
2022-08-21T22:11:29.551Z,99.90
2022-08-21T22:14:22.663Z,99.90
2022-08-21T22:18:07.484Z,99.90
2022-08-21T22:20:53.297Z,99.90
2022-08-21T22:26:50.915Z,99.90
2022-08-21T22:29:56.083Z,99.90
2022-08-21T22:32:29.570Z,99.90
2022-08-21T22:35:40.755Z,99.90
2022-08-21T22:41:54.533Z,99.90
2022-08-21T22:45:00.286Z,99.90
2022-08-21T22:47:42.227Z,99.90
2022-08-21T22:50:43.650Z,99.90
2022-08-21T22:53:32.470Z,99.90
2022-08-21T23:00:14.595Z,99.90
2022-08-21T23:03:07.921Z,99.90
2022-08-21T23:05:58.140Z,99.90
2022-08-21T23:08:33.955Z,99.90
2022-08-21T23:11:23.524Z,99.90
2022-08-21T23:14:14.077Z,99.90
2022-08-21T23:16:59.305Z,99.90
2022-08-21T23:23:19.920Z,99.90
2022-08-21T23:26:00.190Z,99.90
2022-08-21T23:28:59.320Z,99.90
2022-08-21T23:32:00.330Z,99.90
2022-08-21T23:35:17.868Z,99.90
2022-08-21T23:38:12.055Z,99.90
2022-08-21T23:40:55.414Z,99.90
2022-08-21T23:46:56.463Z,99.90
2022-08-21T23:53:09.252Z,99.90
2022-08-21T23:55:54.990Z,99.90
2022-08-21T23:58:51.624Z,99.90
